createdAt,value
2022-09-27T00:02:13.705Z,4.10
2022-09-27T00:04:42.611Z,8.00
2022-09-27T00:07:12.230Z,6.45
2022-09-27T00:09:41.382Z,10.48
2022-09-27T00:12:12.569Z,3.80
2022-09-27T00:14:41.775Z,6.95
2022-09-27T00:17:12.103Z,9.73
2022-09-27T00:19:44.550Z,7.30
2022-09-27T00:22:13.786Z,6.60
2022-09-27T00:24:44.444Z,4.55
2022-09-27T00:27:15.225Z,9.15
2022-09-27T00:29:44.406Z,14.30
2022-09-27T00:32:13.601Z,9.20
2022-09-27T00:34:43.289Z,10.02
2022-09-27T00:37:14.951Z,14.07
2022-09-27T00:39:44.329Z,7.70
2022-09-27T00:42:15.028Z,8.30
2022-09-27T00:45:15.564Z,14.13
2022-09-27T00:47:55.853Z,9.95
2022-09-27T00:50:31.270Z,7.72
2022-09-27T00:55:45.030Z,9.40
2022-09-27T00:58:24.038Z,10.82
2022-09-27T01:01:00.622Z,10.50
2022-09-27T01:03:40.783Z,12.35
2022-09-27T01:06:12.309Z,8.68
2022-09-27T01:08:42.296Z,12.68
2022-09-27T01:11:29.292Z,13.73
2022-09-27T01:14:21.077Z,6.97
2022-09-27T01:17:00.398Z,11.75
2022-09-27T01:20:16.236Z,18.65
2022-09-27T01:23:05.558Z,6.78
2022-09-27T01:26:16.144Z,9.43
2022-09-27T01:29:01.191Z,11.60
2022-09-27T01:31:40.853Z,13.52
2022-09-27T01:34:19.429Z,5.90
2022-09-27T01:37:01.748Z,15.02
2022-09-27T01:39:41.811Z,22.40
2022-09-27T01:42:22.649Z,15.90
2022-09-27T01:44:59.196Z,10.35
2022-09-27T01:47:39.452Z,12.35
2022-09-27T01:50:14.883Z,15.68
2022-09-27T01:57:59.297Z,22.70
2022-09-27T02:03:08.157Z,15.63
2022-09-27T02:05:44.239Z,18.98
2022-09-27T02:08:21.428Z,12.80
2022-09-27T02:10:53.841Z,12.38
2022-09-27T02:13:27.766Z,26.17
2022-09-27T02:16:06.724Z,13.95
2022-09-27T02:18:49.429Z,20.35
2022-09-27T02:21:20.369Z,15.48
2022-09-27T02:23:55.820Z,15.93
2022-09-27T02:29:08.118Z,11.48
2022-09-27T02:31:36.755Z,20.23
2022-09-27T02:34:12.444Z,8.27
2022-09-27T02:36:42.178Z,16.30
2022-09-27T02:39:11.987Z,18.60
2022-09-27T02:41:42.054Z,14.50
2022-09-27T02:44:13.529Z,20.08
2022-09-27T02:47:06.032Z,14.18
2022-09-27T02:50:01.254Z,11.02
2022-09-27T02:52:45.147Z,17.02
2022-09-27T02:55:24.831Z,12.00
2022-09-27T02:58:09.234Z,14.63
2022-09-27T03:00:49.659Z,15.70
2022-09-27T03:03:26.312Z,17.52
2022-09-27T03:06:04.344Z,16.38
2022-09-27T03:08:33.851Z,15.25
2022-09-27T03:11:03.608Z,16.17
2022-09-27T03:13:41.880Z,12.70
2022-09-27T03:16:22.805Z,13.50
2022-09-27T03:18:53.650Z,21.33
2022-09-27T03:21:24.243Z,12.00
2022-09-27T03:23:54.160Z,16.92
2022-09-27T03:26:27.468Z,21.08
2022-09-27T03:28:56.413Z,20.23
2022-09-27T03:31:27.442Z,18.00
2022-09-27T03:33:58.405Z,16.08
2022-09-27T03:36:33.877Z,19.02
2022-09-27T03:41:34.026Z,19.05
2022-09-27T03:44:04.189Z,7.68
2022-09-27T03:46:33.183Z,12.13
2022-09-27T03:49:02.504Z,5.65
2022-09-27T03:51:32.758Z,9.18
2022-09-27T03:54:01.908Z,6.45
2022-09-27T03:56:30.754Z,6.25
2022-09-27T03:59:08.856Z,4.80
2022-09-27T04:01:39.412Z,4.95
2022-09-27T04:04:11.201Z,8.48
2022-09-27T04:06:42.059Z,3.25
2022-09-27T04:09:11.424Z,4.00
2022-09-27T04:11:40.987Z,2.97
2022-09-27T04:14:13.142Z,3.65
2022-09-27T04:16:44.052Z,5.72
2022-09-27T04:19:13.725Z,5.78
2022-09-27T04:21:43.979Z,6.05
2022-09-27T04:24:16.075Z,5.35
2022-09-27T04:26:47.054Z,7.88
2022-09-27T04:29:17.438Z,5.57
2022-09-27T04:31:46.540Z,5.13
2022-09-27T04:34:17.110Z,4.75
2022-09-27T04:36:46.302Z,7.65
2022-09-27T04:39:15.489Z,7.60
2022-09-27T04:41:47.155Z,6.32
2022-09-27T04:44:16.468Z,7.63
2022-09-27T04:46:46.578Z,11.68
2022-09-27T04:49:18.019Z,7.38
2022-09-27T04:51:48.804Z,9.65
2022-09-27T04:54:17.891Z,6.18
2022-09-27T04:56:50.656Z,5.40
2022-09-27T04:59:24.570Z,8.40
2022-09-27T05:01:53.673Z,7.22
2022-09-27T05:04:23.373Z,5.38
2022-09-27T05:06:57.206Z,12.63
2022-09-27T05:09:26.105Z,10.07
2022-09-27T05:11:55.033Z,8.88
2022-09-27T05:16:55.571Z,6.40
2022-09-27T05:19:24.807Z,6.32
2022-09-27T05:21:55.019Z,5.18
2022-09-27T05:24:25.099Z,9.25
2022-09-27T05:26:55.547Z,10.02
2022-09-27T05:29:25.894Z,8.05
2022-09-27T05:31:54.994Z,9.98
2022-09-27T05:34:24.081Z,14.38
2022-09-27T05:36:56.149Z,6.80
2022-09-27T05:39:27.485Z,6.10
2022-09-27T05:41:58.410Z,3.38
2022-09-27T05:44:27.663Z,7.43
2022-09-27T05:46:56.650Z,7.82
2022-09-27T05:49:27.754Z,3.65
2022-09-27T05:52:01.434Z,11.05
2022-09-27T05:54:32.937Z,5.05
2022-09-27T05:57:02.762Z,10.05
2022-09-27T05:59:33.266Z,5.82
2022-09-27T06:02:03.401Z,8.25
2022-09-27T06:04:33.365Z,2.58
2022-09-27T06:07:03.802Z,3.35
2022-09-27T06:09:35.437Z,5.18
2022-09-27T06:12:05.657Z,6.13
2022-09-27T06:14:35.430Z,3.42
2022-09-27T06:17:04.917Z,6.90
2022-09-27T06:19:35.655Z,7.78
2022-09-27T06:22:06.045Z,9.23
2022-09-27T06:24:35.331Z,4.68
2022-09-27T06:27:04.572Z,5.55
2022-09-27T06:29:36.391Z,9.23
2022-09-27T06:32:07.973Z,7.80
2022-09-27T06:34:38.380Z,5.88
2022-09-27T06:37:11.341Z,6.07
2022-09-27T06:39:40.957Z,6.95
2022-09-27T06:42:11.284Z,17.23
2022-09-27T06:44:40.305Z,8.32
2022-09-27T06:47:09.709Z,8.38
2022-09-27T06:49:41.042Z,8.55
2022-09-27T06:52:11.566Z,6.82
2022-09-27T06:54:41.204Z,6.05
2022-09-27T06:57:33.495Z,11.13
2022-09-27T07:00:22.665Z,4.55
2022-09-27T07:02:53.539Z,9.50
2022-09-27T07:05:22.692Z,5.97
2022-09-27T07:07:57.639Z,5.47
2022-09-27T07:10:40.553Z,8.18
2022-09-27T07:13:11.674Z,10.68
2022-09-27T07:15:43.606Z,7.07
2022-09-27T07:18:22.264Z,5.20
2022-09-27T07:23:38.499Z,10.23
2022-09-27T07:26:27.683Z,7.53
2022-09-27T07:28:58.522Z,14.02
2022-09-27T07:31:29.714Z,9.77
2022-09-27T07:33:58.200Z,6.80
2022-09-27T07:36:28.840Z,5.47
2022-09-27T07:39:01.509Z,4.80
2022-09-27T07:41:32.250Z,9.32
2022-09-27T07:44:01.856Z,5.40
2022-09-27T07:46:35.042Z,5.60
2022-09-27T07:49:03.583Z,6.88
2022-09-27T07:51:32.539Z,7.22
2022-09-27T07:54:08.652Z,6.22
2022-09-27T07:56:37.792Z,7.68
2022-09-27T07:59:10.595Z,3.00
2022-09-27T08:01:40.736Z,4.15
2022-09-27T08:04:10.257Z,6.15
2022-09-27T08:06:39.726Z,7.90
2022-09-27T08:09:10.935Z,7.40
2022-09-27T08:11:39.650Z,6.93
2022-09-27T08:14:08.183Z,6.28
2022-09-27T08:16:38.726Z,11.10
2022-09-27T08:19:07.392Z,12.70
2022-09-27T08:21:58.066Z,11.93
2022-09-27T08:24:29.934Z,6.85
2022-09-27T08:26:59.791Z,8.82
2022-09-27T08:29:29.063Z,7.47
2022-09-27T08:31:59.546Z,5.53
2022-09-27T08:34:32.473Z,9.65
2022-09-27T08:37:02.272Z,3.50
2022-09-27T08:39:33.449Z,7.10
2022-09-27T08:42:17.570Z,6.75
2022-09-27T08:45:02.929Z,7.07
2022-09-27T08:47:39.134Z,5.95
2022-09-27T08:50:25.003Z,5.15
2022-09-27T08:55:37.469Z,5.10
2022-09-27T08:58:17.804Z,5.13
2022-09-27T09:00:46.944Z,9.30
2022-09-27T09:03:22.990Z,6.28
2022-09-27T09:06:10.262Z,11.75
2022-09-27T09:08:57.700Z,6.50
2022-09-27T09:12:02.425Z,8.30
2022-09-27T09:15:03.688Z,6.53
2022-09-27T09:17:53.760Z,9.98
2022-09-27T09:20:37.942Z,7.88
2022-09-27T09:23:39.646Z,5.25
2022-09-27T09:26:19.241Z,10.88
2022-09-27T09:29:11.739Z,9.48
2022-09-27T09:31:48.476Z,5.60
2022-09-27T09:34:23.465Z,6.10
2022-09-27T09:37:00.864Z,8.63
2022-09-27T09:39:36.267Z,6.80
2022-09-27T09:42:14.071Z,8.23
2022-09-27T09:44:54.442Z,6.32
2022-09-27T09:47:37.309Z,8.77
2022-09-27T09:50:17.865Z,8.35
2022-09-27T09:52:52.567Z,6.75
2022-09-27T09:55:26.139Z,6.88
2022-09-27T09:58:04.368Z,7.50
2022-09-27T10:00:35.399Z,6.90
2022-09-27T10:03:06.447Z,9.98
2022-09-27T10:05:35.840Z,5.35
2022-09-27T10:08:09.179Z,9.13
2022-09-27T10:10:37.785Z,7.97
2022-09-27T10:13:06.685Z,11.77
2022-09-27T10:15:38.483Z,5.80
2022-09-27T10:18:08.172Z,9.68
2022-09-27T10:20:43.726Z,8.93
2022-09-27T10:23:19.858Z,7.13
2022-09-27T10:25:54.272Z,10.50
2022-09-27T10:28:39.345Z,8.73
2022-09-27T10:31:14.391Z,6.43
2022-09-27T10:33:57.800Z,10.95
2022-09-27T10:36:29.682Z,7.43
2022-09-27T10:39:02.473Z,7.85
2022-09-27T10:41:36.671Z,12.73
2022-09-27T10:44:26.692Z,10.73
2022-09-27T10:47:00.037Z,8.77
2022-09-27T10:49:32.176Z,8.93
2022-09-27T10:52:04.342Z,7.93
2022-09-27T10:54:37.680Z,10.05
2022-09-27T10:57:17.874Z,7.18
2022-09-27T10:59:56.028Z,7.90
2022-09-27T11:02:33.330Z,5.90
2022-09-27T11:05:16.013Z,9.20
2022-09-27T11:07:53.914Z,8.27
2022-09-27T11:10:28.741Z,9.18
2022-09-27T11:13:17.008Z,8.93
2022-09-27T11:16:07.834Z,10.85
2022-09-27T11:18:48.922Z,8.35
2022-09-27T11:21:27.393Z,5.47
2022-09-27T11:24:13.523Z,7.43
2022-09-27T11:26:57.982Z,9.45
2022-09-27T11:29:37.432Z,5.10
2022-09-27T11:32:30.953Z,8.88
2022-09-27T11:35:32.847Z,7.13
2022-09-27T11:38:40.870Z,5.22
2022-09-27T11:41:40.298Z,5.20
2022-09-27T11:44:45.762Z,6.18
2022-09-27T11:47:29.949Z,7.95
2022-09-27T11:50:29.461Z,5.57
2022-09-27T11:53:16.245Z,6.28
2022-09-27T11:55:54.546Z,7.63
2022-09-27T11:58:33.196Z,9.18
2022-09-27T12:01:17.617Z,6.72
2022-09-27T12:04:23.743Z,8.07
2022-09-27T12:07:05.839Z,9.70
2022-09-27T12:09:40.201Z,5.30
2022-09-27T12:12:19.730Z,7.95
2022-09-27T12:14:55.724Z,6.28
2022-09-27T12:17:30.217Z,7.72
2022-09-27T12:20:05.488Z,5.97
2022-09-27T12:22:59.072Z,4.95
2022-09-27T12:25:35.582Z,4.82
2022-09-27T12:28:12.322Z,5.22
2022-09-27T12:30:49.062Z,9.60
2022-09-27T12:33:27.755Z,5.47
2022-09-27T12:36:00.557Z,5.93
2022-09-27T12:38:42.834Z,7.28
2022-09-27T12:41:18.999Z,4.63
2022-09-27T12:43:53.444Z,5.65
2022-09-27T12:46:37.396Z,10.60
2022-09-27T12:49:13.460Z,6.15
2022-09-27T12:51:49.484Z,3.92
2022-09-27T12:54:57.107Z,12.20
2022-09-27T12:57:41.288Z,5.70
2022-09-27T13:00:15.846Z,6.57
2022-09-27T13:03:25.100Z,7.63
2022-09-27T13:06:20.589Z,4.60
2022-09-27T13:09:14.974Z,2.75
2022-09-27T13:11:53.711Z,6.22
2022-09-27T13:14:27.769Z,4.50
2022-09-27T13:16:56.559Z,6.55
2022-09-27T13:19:46.110Z,4.00
2022-09-27T13:22:41.397Z,3.88
2022-09-27T13:25:55.600Z,3.03
2022-09-27T13:28:58.686Z,8.98
2022-09-27T13:32:12.692Z,3.08
2022-09-27T13:34:44.110Z,7.60
2022-09-27T13:37:47.337Z,4.18
2022-09-27T13:40:34.980Z,2.72
2022-09-27T13:43:54.384Z,3.35
2022-09-27T13:46:28.493Z,3.60
2022-09-27T13:49:02.156Z,3.17
2022-09-27T13:51:41.458Z,3.05
2022-09-27T13:54:40.277Z,6.95
2022-09-27T13:57:53.708Z,6.93
2022-09-27T14:00:29.739Z,4.10
2022-09-27T14:03:25.626Z,3.67
2022-09-27T14:06:02.729Z,2.67
2022-09-27T14:08:40.345Z,2.13
2022-09-27T14:11:15.954Z,3.90
2022-09-27T14:13:47.564Z,2.13
2022-09-27T14:16:21.090Z,2.85
2022-09-27T14:18:58.040Z,3.90
2022-09-27T14:21:34.603Z,4.22
2022-09-27T14:24:31.330Z,5.05
2022-09-27T14:27:13.815Z,2.10
2022-09-27T14:29:46.942Z,3.25
2022-09-27T14:32:20.053Z,2.50
2022-09-27T14:35:03.963Z,3.53
2022-09-27T14:37:33.484Z,1.08
2022-09-27T14:40:08.332Z,3.28
2022-09-27T14:42:38.969Z,2.30
2022-09-27T14:45:22.295Z,3.42
2022-09-27T14:47:53.704Z,4.35
2022-09-27T14:50:29.264Z,3.95
2022-09-27T14:53:00.899Z,5.57
2022-09-27T14:55:34.974Z,3.95
2022-09-27T14:58:08.673Z,5.20
2022-09-27T15:00:49.691Z,2.97
2022-09-27T15:03:33.405Z,3.17
2022-09-27T15:06:05.702Z,4.45
2022-09-27T15:08:35.697Z,3.55
2022-09-27T15:11:07.949Z,1.70
2022-09-27T15:13:38.496Z,3.17
2022-09-27T15:16:13.270Z,4.38
2022-09-27T15:18:46.779Z,3.60
2022-09-27T15:21:32.827Z,3.95
2022-09-27T15:24:03.901Z,9.13
2022-09-27T15:26:42.384Z,4.60
2022-09-27T15:29:20.927Z,3.72
2022-09-27T15:32:01.578Z,2.80
2022-09-27T15:34:35.262Z,1.52
2022-09-27T15:37:06.728Z,1.70
2022-09-27T15:39:38.395Z,9.70
2022-09-27T15:42:10.530Z,4.70
2022-09-27T15:44:47.433Z,3.65
2022-09-27T15:47:50.187Z,2.28
2022-09-27T15:50:39.982Z,3.40
2022-09-27T15:53:11.369Z,5.55
2022-09-27T15:55:43.697Z,6.45
2022-09-27T15:58:18.963Z,5.90
2022-09-27T16:00:55.823Z,4.53
2022-09-27T16:03:26.119Z,2.75
2022-09-27T16:05:58.630Z,3.92
2022-09-27T16:08:29.060Z,6.45
2022-09-27T16:11:03.522Z,4.10
2022-09-27T16:13:33.317Z,6.60
2022-09-27T16:16:11.803Z,16.58
2022-09-27T16:18:40.737Z,225.95
2022-09-27T16:21:11.149Z,14.13
2022-09-27T16:23:45.139Z,8.18
2022-09-27T16:26:13.886Z,6.68
2022-09-27T16:28:42.634Z,7.65
2022-09-27T16:31:17.185Z,8.77
2022-09-27T16:33:49.474Z,6.57
2022-09-27T16:36:21.425Z,9.20
2022-09-27T16:38:51.896Z,11.95
2022-09-27T16:41:22.737Z,12.25
2022-09-27T16:43:51.916Z,12.57
2022-09-27T16:46:20.711Z,13.57
2022-09-27T16:48:50.003Z,8.20
2022-09-27T16:51:40.694Z,9.00
2022-09-27T16:54:11.419Z,9.93
2022-09-27T16:56:42.385Z,8.65
2022-09-27T16:59:11.266Z,9.50
2022-09-27T17:01:39.767Z,9.18
2022-09-27T17:04:09.136Z,9.18
2022-09-27T17:06:39.649Z,7.82
2022-09-27T17:09:08.228Z,10.20
2022-09-27T17:11:37.535Z,6.05
2022-09-27T17:14:07.514Z,9.07
2022-09-27T17:16:36.108Z,4.25
2022-09-27T17:19:05.587Z,6.03
2022-09-27T17:21:38.066Z,11.98
2022-09-27T17:24:09.628Z,7.63
2022-09-27T17:26:38.310Z,5.55
2022-09-27T17:29:09.233Z,9.00
2022-09-27T17:31:41.250Z,4.78
2022-09-27T17:34:15.166Z,5.57
2022-09-27T17:36:48.485Z,7.43
2022-09-27T17:39:21.572Z,8.77
2022-09-27T17:41:52.625Z,12.07
2022-09-27T17:44:23.752Z,8.75
2022-09-27T17:47:13.240Z,7.05
2022-09-27T17:50:02.908Z,12.88
2022-09-27T17:52:38.982Z,8.73
2022-09-27T17:55:11.295Z,12.38
2022-09-27T17:57:46.435Z,9.13
2022-09-27T18:00:19.244Z,7.35
2022-09-27T18:02:51.720Z,6.43
2022-09-27T18:05:25.057Z,7.40
2022-09-27T18:07:56.613Z,8.95
2022-09-27T18:10:44.495Z,10.43
2022-09-27T18:13:29.838Z,11.70
2022-09-27T18:16:11.828Z,9.00
2022-09-27T18:18:51.001Z,16.63
2022-09-27T18:21:28.756Z,19.90
2022-09-27T18:24:09.086Z,16.67
2022-09-27T18:26:49.103Z,13.55
2022-09-27T18:29:22.099Z,12.48
2022-09-27T18:31:58.556Z,13.32
2022-09-27T18:34:35.186Z,17.42
2022-09-27T18:37:14.855Z,13.20
2022-09-27T18:39:47.644Z,13.57
2022-09-27T18:42:21.553Z,16.92
2022-09-27T18:44:56.310Z,15.02
2022-09-27T18:47:27.365Z,14.00
2022-09-27T18:50:03.566Z,16.67
2022-09-27T18:52:38.092Z,13.00
2022-09-27T18:55:16.758Z,13.18
2022-09-27T18:57:58.606Z,22.83
2022-09-27T19:00:31.838Z,19.17
2022-09-27T19:03:06.119Z,17.75
2022-09-27T19:05:41.700Z,17.13
2022-09-27T19:08:17.008Z,19.40
2022-09-27T19:10:46.538Z,15.73
2022-09-27T19:13:21.469Z,21.40
2022-09-27T19:16:06.338Z,13.65
2022-09-27T19:18:42.460Z,12.77
2022-09-27T19:21:29.897Z,10.13
2022-09-27T19:24:02.939Z,16.38
2022-09-27T19:26:33.991Z,16.20
2022-09-27T19:29:07.622Z,18.60
2022-09-27T19:31:42.383Z,16.38
2022-09-27T19:34:18.180Z,31.77
2022-09-27T19:36:57.023Z,20.27
2022-09-27T19:42:26.380Z,17.83
2022-09-27T19:44:57.963Z,25.95
2022-09-27T19:47:33.228Z,28.10
2022-09-27T19:52:48.744Z,32.27
2022-09-27T19:55:25.631Z,29.42
2022-09-27T19:57:58.263Z,28.95
2022-09-27T20:00:31.163Z,19.98
2022-09-27T20:03:02.895Z,22.45
2022-09-27T20:05:51.023Z,26.60
2022-09-27T20:08:23.602Z,24.52
2022-09-27T20:11:05.200Z,29.02
2022-09-27T20:13:42.401Z,25.23
2022-09-27T20:16:16.502Z,24.58
2022-09-27T20:18:50.081Z,26.05
2022-09-27T20:21:21.405Z,30.83
2022-09-27T20:23:56.839Z,19.92
2022-09-27T20:29:00.598Z,28.48
2022-09-27T20:31:33.199Z,24.20
2022-09-27T20:34:02.525Z,30.50
2022-09-27T20:36:36.682Z,26.67
2022-09-27T20:39:08.143Z,27.17
2022-09-27T20:41:39.642Z,28.95
2022-09-27T20:44:15.080Z,30.38
2022-09-27T20:46:45.790Z,31.10
2022-09-27T20:49:19.620Z,30.52
2022-09-27T20:51:51.227Z,35.72
2022-09-27T20:54:20.373Z,32.35
2022-09-27T20:56:50.244Z,32.55
2022-09-27T20:59:22.481Z,39.08
2022-09-27T21:01:56.295Z,35.65
2022-09-27T21:04:25.306Z,34.60
2022-09-27T21:06:56.656Z,38.03
2022-09-27T21:09:25.315Z,35.20
2022-09-27T21:11:53.976Z,56.10
2022-09-27T21:14:25.182Z,98.03
2022-09-27T21:16:53.564Z,55.38
2022-09-27T21:19:22.646Z,59.80
2022-09-27T21:21:53.942Z,45.78
2022-09-27T21:24:23.802Z,48.33
2022-09-27T21:26:53.715Z,45.78
2022-09-27T21:29:23.869Z,48.80
2022-09-27T21:31:53.055Z,45.60
2022-09-27T21:34:23.940Z,45.92
2022-09-27T21:36:52.659Z,55.17
2022-09-27T21:39:21.475Z,60.88
2022-09-27T21:41:51.030Z,54.28
2022-09-27T21:44:19.568Z,60.75
2022-09-27T21:46:52.606Z,50.88
2022-09-27T21:49:21.157Z,50.90
2022-09-27T21:51:49.963Z,50.53
2022-09-27T21:54:19.140Z,50.53
2022-09-27T21:56:48.463Z,55.35
2022-09-27T21:59:18.233Z,55.28
2022-09-27T22:01:49.474Z,53.08
2022-09-27T22:04:17.953Z,53.47
2022-09-27T22:06:47.015Z,54.22
2022-09-27T22:09:19.497Z,63.08
2022-09-27T22:11:48.660Z,50.03
2022-09-27T22:14:20.002Z,50.05
2022-09-27T22:16:50.698Z,51.38
2022-09-27T22:19:21.232Z,55.70
2022-09-27T22:21:49.460Z,56.40
2022-09-27T22:24:20.198Z,50.95
2022-09-27T22:26:54.414Z,49.67
2022-09-27T22:29:23.682Z,51.33
2022-09-27T22:31:54.401Z,52.60
2022-09-27T22:34:29.242Z,46.78
2022-09-27T22:37:01.367Z,44.33
2022-09-27T22:39:30.743Z,45.03
2022-09-27T22:41:59.879Z,48.47
2022-09-27T22:44:28.444Z,43.10
2022-09-27T22:47:00.108Z,53.28
2022-09-27T22:49:28.828Z,46.83
2022-09-27T22:51:57.327Z,37.15
2022-09-27T22:54:26.020Z,36.28
2022-09-27T22:56:57.266Z,37.88
2022-09-27T22:59:27.063Z,40.63
2022-09-27T23:01:57.611Z,45.28
2022-09-27T23:04:28.116Z,39.20
2022-09-27T23:06:57.504Z,37.63
2022-09-27T23:09:26.631Z,33.03
2022-09-27T23:11:55.899Z,34.20
2022-09-27T23:14:26.143Z,29.85
2022-09-27T23:16:54.886Z,26.02
2022-09-27T23:19:29.460Z,26.75
2022-09-27T23:22:00.024Z,26.63
2022-09-27T23:24:30.125Z,27.42
2022-09-27T23:27:16.555Z,24.55
2022-09-27T23:29:46.033Z,22.30
2022-09-27T23:32:14.972Z,24.00
2022-09-27T23:34:45.715Z,19.85
2022-09-27T23:37:14.408Z,20.85
2022-09-27T23:39:42.905Z,15.77
2022-09-27T23:42:11.496Z,15.52
2022-09-27T23:44:40.302Z,17.90
2022-09-27T23:47:10.925Z,17.27
2022-09-27T23:49:39.502Z,16.40
2022-09-27T23:52:12.623Z,12.77
2022-09-27T23:54:42.099Z,12.40
2022-09-27T23:57:10.958Z,18.42
2022-09-27T23:59:39.957Z,18.70
